Time;durP1;ratioP1;P1;durP2;ratioP2;P2;SDS_P1;SDS_P2;PMS_P1;PMS_P2;Temp;Humidity;BMP_temperature;BMP_pressure;BME280_temperature;BME280_humidity;BME280_pressure;Samples;Min_cycle;Max_cycle;Signal;HPM_P1;HPM_P2
2022/01/18 00:00:17;;;;;;;63.73;13.50;;;;;;;3.77;100.00;103786.88;5020175;28;20021;-55
2022/01/18 00:02:43;;;;;;;69.37;13.13;;;;;;;3.85;100.00;103776.09;5025983;28;20029;-55
2022/01/18 00:05:13;;;;;;;53.43;14.27;;;;;;;3.89;100.00;103775.94;5025977;28;20442;-55
2022/01/18 00:07:39;;;;;;;54.57;12.60;;;;;;;3.94;100.00;103773.97;5025570;28;20128;-56
2022/01/18 00:10:05;;;;;;;58.30;12.93;;;;;;;3.97;100.00;103779.13;5025441;28;20025;-54
2022/01/18 00:15:17;;;;;;;44.50;12.10;;;;;;;4.01;100.00;103772.84;5027695;28;20059;-55
2022/01/18 00:17:51;;;;;;;59.33;13.30;;;;;;;4.08;100.00;103776.13;5028211;28;20503;-55
2022/01/18 00:20:21;;;;;;;47.17;12.60;;;;;;;4.10;100.00;103779.56;5027432;28;20037;-54
2022/01/18 00:22:46;;;;;;;50.23;12.00;;;;;;;4.15;100.00;103784.63;5027037;28;20029;-53
2022/01/18 00:25:12;;;;;;;57.43;12.40;;;;;;;4.10;100.00;103765.53;5027710;28;20029;-55
2022/01/18 00:27:38;;;;;;;60.00;12.97;;;;;;;4.20;100.00;103786.19;5028160;28;20606;-55
2022/01/18 00:30:33;;;;;;;61.37;12.50;;;;;;;4.21;100.00;103784.41;5027273;28;20033;-56
2022/01/18 00:33:11;;;;;;;53.60;12.87;;;;;;;4.24;100.00;103790.41;5026211;28;20044;-56
2022/01/18 00:35:36;;;;;;;48.57;11.87;;;;;;;4.26;100.00;103791.22;5027103;28;20492;-55
2022/01/18 00:38:14;;;;;;;56.37;11.53;;;;;;;4.26;100.00;103792.97;5026834;28;20042;-56
2022/01/18 00:40:39;;;;;;;51.97;11.17;;;;;;;4.27;100.00;103806.06;5021263;28;20026;-56
2022/01/18 00:43:04;;;;;;;51.33;12.00;;;;;;;4.24;100.00;103813.22;5018258;28;20040;-56
2022/01/18 00:45:30;;;;;;;44.10;11.33;;;;;;;4.23;100.00;103816.78;5025080;28;20033;-55
2022/01/18 00:47:56;;;;;;;52.17;11.37;;;;;;;4.23;100.00;103819.41;5027378;28;20072;-55
2022/01/18 00:50:21;;;;;;;48.33;11.47;;;;;;;4.20;100.00;103811.63;5026300;28;20076;-55
2022/01/18 00:52:52;;;;;;;45.97;11.70;;;;;;;4.25;100.00;103821.06;5026874;28;20123;-55
2022/01/18 00:55:17;;;;;;;55.00;11.00;;;;;;;4.24;100.00;103821.13;5027307;28;20171;-56
2022/01/18 00:57:43;;;;;;;55.67;12.00;;;;;;;4.27;100.00;103826.25;5024260;28;20115;-55
2022/01/18 01:00:08;;;;;;;54.30;12.17;;;;;;;4.29;100.00;103829.69;5023827;28;20033;-56
2022/01/18 01:02:34;;;;;;;54.27;12.53;;;;;;;4.30;100.00;103827.00;5027496;28;20516;-55
2022/01/18 01:04:59;;;;;;;71.93;14.87;;;;;;;4.30;100.00;103827.00;5027518;28;20025;-55
2022/01/18 01:07:24;;;;;;;60.20;13.33;;;;;;;4.31;100.00;103826.09;5027511;28;20025;-55
2022/01/18 01:09:51;;;;;;;63.20;13.00;;;;;;;4.32;100.00;103819.06;5026600;28;20079;-56
2022/01/18 01:12:18;;;;;;;55.73;13.40;;;;;;;4.34;100.00;103818.09;5027851;28;20512;-55
2022/01/18 01:14:45;;;;;;;61.57;13.33;;;;;;;4.37;100.00;103824.16;5026569;28;20040;-55
2022/01/18 01:44:01;;;;;;;61.37;14.70;;;;;;;4.32;100.00;103803.25;5030217;28;20111;-55
2022/01/18 01:46:27;;;;;;;69.13;14.63;;;;;;;4.30;100.00;103802.47;5029731;28;20477;-55
2022/01/18 01:48:55;;;;;;;63.07;14.50;;;;;;;4.30;100.00;103795.44;5029571;28;20033;-54
2022/01/18 01:51:21;;;;;;;52.43;14.43;;;;;;;4.30;100.00;103792.81;5029653;28;20057;-55
2022/01/18 01:53:47;;;;;;;57.53;14.23;;;;;;;4.29;100.00;103796.34;5026814;28;20057;-56
2022/01/18 01:56:12;;;;;;;56.97;14.87;;;;;;;4.31;100.00;103797.16;5022541;28;20059;-56
2022/01/18 01:58:37;;;;;;;52.33;14.50;;;;;;;4.31;100.00;103788.41;5019075;28;20033;-55
2022/01/18 02:01:07;;;;;;;56.37;15.57;;;;;;;4.31;100.00;103796.28;5020560;28;20026;-55
2022/01/18 02:03:33;;;;;;;64.93;16.45;;;;;;;4.30;100.00;103800.69;5024398;28;20488;-55
2022/01/18 02:05:58;;;;;;;51.83;15.33;;;;;;;4.30;100.00;103799.84;5019028;28;20393;-53
2022/01/18 02:08:24;;;;;;;67.03;17.80;;;;;;;4.30;100.00;103800.69;5025287;28;20034;-55
2022/01/18 02:10:49;;;;;;;62.13;16.37;;;;;;;4.30;100.00;103808.59;5022495;28;20205;-55
2022/01/18 02:13:15;;;;;;;67.53;17.90;;;;;;;4.30;100.00;103808.59;5026731;28;20040;-56
2022/01/18 02:15:58;;;;;;;65.03;17.47;;;;;;;4.32;100.00;103811.16;5025972;28;20060;-56
2022/01/18 02:23:52;;;;;;;56.87;16.63;;;;;;;4.37;100.00;103814.50;5021812;28;20575;-55
2022/01/18 02:26:17;;;;;;;66.73;17.77;;;;;;;4.37;100.00;103809.25;5020176;28;20022;-55
2022/01/18 02:28:42;;;;;;;59.80;17.43;;;;;;;4.37;100.00;103813.66;5019358;28;20429;-55
2022/01/18 02:31:07;;;;;;;63.33;17.37;;;;;;;4.36;100.00;103810.16;5024572;28;20064;-55
2022/01/18 02:33:33;;;;;;;60.77;17.43;;;;;;;4.38;100.00;103808.31;5018190;28;20034;-55
2022/01/18 02:35:58;;;;;;;55.93;16.93;;;;;;;4.38;100.00;103813.59;5020601;28;20033;-52
2022/01/18 02:38:23;;;;;;;61.43;17.63;;;;;;;4.41;100.00;103804.72;5024163;28;20053;-56
2022/01/18 02:40:49;;;;;;;62.67;17.97;;;;;;;4.42;100.00;103807.28;5021510;28;20092;-56
2022/01/18 02:45:58;;;;;;;57.57;17.67;;;;;;;4.44;100.00;103801.97;5022785;28;20071;-56
2022/01/18 02:48:24;;;;;;;63.33;17.23;;;;;;;4.44;100.00;103799.34;5021437;28;20038;-56
2022/01/18 02:50:49;;;;;;;54.70;16.77;;;;;;;4.43;100.00;103795.00;5020802;28;20034;-56
2022/01/18 02:53:18;;;;;;;67.20;17.73;;;;;;;4.45;100.00;103795.78;5024312;28;20036;-55
2022/01/18 02:55:49;;;;;;;69.40;18.00;;;;;;;4.45;100.00;103795.78;5018975;28;20113;-54
2022/01/18 02:58:23;;;;;;;61.57;17.73;;;;;;;4.44;100.00;103792.31;5022912;28;21575;-56
2022/01/18 03:03:34;;;;;;;74.00;18.43;;;;;;;4.47;100.00;103799.22;5021134;28;20520;-56
2022/01/18 03:06:03;;;;;;;78.10;17.67;;;;;;;4.46;100.00;103801.00;5019163;28;20871;-55
2022/01/18 03:08:28;;;;;;;68.07;16.90;;;;;;;4.45;100.00;103801.91;5024262;28;20535;-54
2022/01/18 03:10:55;;;;;;;75.03;18.43;;;;;;;4.47;100.00;103802.69;5021349;28;20026;-56
2022/01/18 03:13:20;;;;;;;70.23;18.80;;;;;;;4.48;100.00;103798.28;5020967;28;20028;-56
2022/01/18 03:15:46;;;;;;;84.03;19.03;;;;;;;4.50;100.00;103807.84;5023787;28;20295;-56
2022/01/18 03:18:12;;;;;;;88.50;17.87;;;;;;;4.49;100.00;103800.88;5022655;28;20021;-56
2022/01/18 03:20:38;;;;;;;81.73;19.20;;;;;;;4.50;100.00;103810.47;5017752;28;20109;-55
2022/01/18 03:23:09;;;;;;;118.57;19.57;;;;;;;4.48;100.00;103809.69;5023435;28;20025;-55
2022/01/18 03:28:06;;;;;;;103.30;20.30;;;;;;;4.49;100.00;103813.16;5025109;28;21593;-56
2022/01/18 03:30:38;;;;;;;109.87;19.43;;;;;;;4.49;100.00;103811.41;5023052;28;20469;-56
2022/01/18 03:33:07;;;;;;;114.87;20.03;;;;;;;4.47;100.00;103818.50;5019093;28;20049;-55
2022/01/18 03:35:33;;;;;;;126.60;21.08;;;;;;;4.47;100.00;103810.59;5019135;28;20022;-54
2022/01/18 03:37:58;;;;;;;125.57;20.43;;;;;;;4.47;100.00;103813.22;5022325;28;20067;-55
2022/01/18 03:40:24;;;;;;;129.30;20.23;;;;;;;4.47;100.00;103810.59;5023630;28;20053;-54
2022/01/18 03:42:50;;;;;;;175.83;20.40;;;;;;;4.46;100.00;103815.91;5020618;28;20060;-54
2022/01/18 03:45:27;;;;;;;156.60;20.30;;;;;;;4.45;100.00;103814.22;5026654;28;20029;-55
2022/01/18 03:47:55;;;;;;;147.73;20.60;;;;;;;4.45;100.00;103815.06;5025948;28;20033;-56
2022/01/18 03:50:20;;;;;;;176.83;20.60;;;;;;;4.45;100.00;103816.84;5024926;28;20095;-54
2022/01/18 03:52:46;;;;;;;198.30;20.90;;;;;;;4.45;100.00;103820.31;5026948;28;20037;-54
2022/01/18 03:55:13;;;;;;;168.47;20.13;;;;;;;4.45;100.00;103817.69;5026998;28;20055;-56
2022/01/18 03:57:39;;;;;;;149.27;20.50;;;;;;;4.46;100.00;103821.19;5024259;28;20459;-55
2022/01/18 04:00:14;;;;;;;65.73;20.20;;;;;;;4.45;100.00;103822.97;5026314;28;20025;-54
2022/01/18 04:02:40;;;;;;;59.10;19.20;;;;;;;4.44;100.00;103831.75;5023895;28;20112;-55
2022/01/18 04:05:06;;;;;;;60.83;19.83;;;;;;;4.43;100.00;103827.41;5017733;28;20144;-53
2022/01/18 04:07:32;;;;;;;52.53;18.80;;;;;;;4.40;100.00;103826.69;5023084;28;20021;-55
2022/01/18 04:09:57;;;;;;;52.60;19.27;;;;;;;4.39;100.00;103836.34;5018990;28;20382;-56
2022/01/18 04:12:22;;;;;;;48.17;18.77;;;;;;;4.38;100.00;103833.78;5018833;28;20486;-55
2022/01/18 04:14:47;;;;;;;55.23;19.30;;;;;;;4.38;100.00;103836.41;5020466;28;20468;-55
2022/01/18 04:27:43;;;;;;;52.57;18.33;;;;;;;4.32;100.00;103840.94;5026849;28;20052;-53
2022/01/18 04:30:09;;;;;;;56.47;18.97;;;;;;;4.29;100.00;103841.06;5027150;28;20087;-53
2022/01/18 04:32:34;;;;;;;64.67;19.93;;;;;;;4.27;100.00;103840.28;5027649;28;20029;-54
2022/01/18 04:34:59;;;;;;;57.10;18.90;;;;;;;4.26;100.00;103837.69;5028230;28;20036;-56
2022/01/18 04:37:24;;;;;;;66.00;20.03;;;;;;;4.26;100.00;103837.69;5027742;28;20025;-55
2022/01/18 04:39:50;;;;;;;77.83;19.20;;;;;;;4.22;100.00;103839.59;5021376;28;20038;-56
2022/01/18 04:42:47;;;;;;;74.73;19.50;;;;;;;4.20;100.00;103846.69;5028593;28;20021;-55
2022/01/18 04:51:07;;;;;;;90.53;20.93;;;;;;;4.15;100.00;103838.09;5016167;28;20571;-55
2022/01/18 04:53:35;;;;;;;84.47;19.50;;;;;;;4.16;100.00;103837.19;5029596;28;20037;-55
2022/01/18 04:56:05;;;;;;;73.10;20.20;;;;;;;4.15;100.00;103837.25;5029861;28;20029;-55
2022/01/18 04:58:31;;;;;;;81.63;20.50;;;;;;;4.15;100.00;103845.97;5029596;28;20036;-56
2022/01/18 05:00:59;;;;;;;74.57;21.30;;;;;;;4.14;100.00;103852.16;5031108;28;20383;-52
2022/01/18 05:03:26;;;;;;;90.83;20.33;;;;;;;4.14;100.00;103856.56;5032038;28;20029;-56
2022/01/18 05:05:55;;;;;;;67.30;19.23;;;;;;;4.12;100.00;103859.25;5030972;28;20033;-55
2022/01/18 05:08:20;;;;;;;66.50;18.83;;;;;;;4.13;100.00;103854.84;5031337;28;20033;-55
2022/01/18 05:10:52;;;;;;;57.83;17.87;;;;;;;4.11;100.00;103862.78;5030833;28;20048;-55
2022/01/18 05:14:16;;;;;;;59.40;16.77;;;;;;;4.12;100.00;103866.28;5031728;28;20021;-56
2022/01/18 05:21:36;;;;;;;59.07;15.93;;;;;;;4.11;100.00;103861.94;5028021;28;20306;-53
2022/01/18 05:24:02;;;;;;;73.53;18.67;;;;;;;4.09;100.00;103858.50;5031013;28;20017;-55
2022/01/18 05:26:28;;;;;;;69.93;20.07;;;;;;;4.10;100.00;103862.84;5031511;28;20042;-55
2022/01/18 05:28:54;;;;;;;86.60;20.67;;;;;;;4.09;100.00;103853.25;5029934;28;20025;-54
2022/01/18 05:31:19;;;;;;;83.80;19.93;;;;;;;4.09;100.00;103858.50;5031237;28;20033;-53
2022/01/18 05:33:46;;;;;;;73.83;20.30;;;;;;;4.07;100.00;103855.06;5030648;28;20413;-55
2022/01/18 05:36:12;;;;;;;75.90;20.20;;;;;;;4.07;100.00;103855.06;5030610;28;20148;-55
2022/01/18 05:38:38;;;;;;;81.77;20.67;;;;;;;4.05;100.00;103857.75;5030680;28;20116;-56
2022/01/18 05:41:05;;;;;;;103.50;21.13;;;;;;;4.04;100.00;103850.75;5030456;28;20020;-56
2022/01/18 05:43:31;;;;;;;95.53;20.30;;;;;;;4.03;100.00;103847.25;5030993;28;20472;-55
2022/01/18 05:45:57;;;;;;;103.63;20.30;;;;;;;4.02;100.00;103849.94;5029957;28;20025;-56
2022/01/18 05:48:23;;;;;;;126.90;20.60;;;;;;;4.01;100.00;103853.50;5030524;28;20029;-55
2022/01/18 05:50:48;;;;;;;108.77;20.57;;;;;;;4.01;100.00;103856.97;5029559;28;20029;-55
2022/01/18 05:53:14;;;;;;;135.53;20.97;;;;;;;4.02;100.00;103853.44;5030883;28;20024;-56
2022/01/18 05:55:39;;;;;;;161.30;20.87;;;;;;;4.01;100.00;103850.84;5030298;28;20022;-54
2022/01/18 05:58:05;;;;;;;201.40;20.07;;;;;;;4.01;100.00;103841.19;5030692;28;20039;-55
2022/01/18 06:00:31;;;;;;;108.47;17.57;;;;;;;4.03;100.00;103849.03;5028725;28;20024;-56
2022/01/18 06:08:08;;;;;;;155.13;18.53;;;;;;;4.01;100.00;103848.22;5030296;28;20036;-56
2022/01/18 06:10:33;;;;;;;176.73;17.93;;;;;;;3.98;100.00;103843.94;5029236;28;20030;-55
2022/01/18 06:13:03;;;;;;;177.93;17.10;;;;;;;3.99;100.00;103839.53;5030038;28;20480;-56
2022/01/18 06:15:30;;;;;;;205.77;18.20;;;;;;;3.96;100.00;103848.41;5030252;28;20036;-56
2022/01/18 06:17:56;;;;;;;174.43;18.13;;;;;;;3.96;100.00;103852.81;5029936;28;20029;-56
2022/01/18 06:20:21;;;;;;;163.93;17.77;;;;;;;3.94;100.00;103858.13;5029396;28;20013;-55
2022/01/18 06:22:49;;;;;;;199.17;18.70;;;;;;;3.95;100.00;103858.97;5030067;28;20025;-56
2022/01/18 06:25:14;;;;;;;157.43;18.33;;;;;;;3.91;100.00;103852.09;5027270;28;20048;-55
2022/01/18 06:27:39;;;;;;;250.67;19.23;;;;;;;3.93;100.00;103859.03;5031544;28;20460;-56
2022/01/18 06:30:09;;;;;;;183.83;18.17;;;;;;;3.94;100.00;103850.22;5032780;28;20049;-54
2022/01/18 06:32:38;;;;;;;194.77;17.40;;;;;;;3.93;100.00;103843.25;5028453;28;20026;-56
2022/01/18 06:35:05;;;;;;;296.02;18.65;;;;;;;3.94;100.00;103846.75;5027978;28;20083;-56
2022/01/18 06:37:31;;;;;;;155.30;18.50;;;;;;;3.93;100.00;103840.63;5029135;28;20112;-56
2022/01/18 06:39:58;;;;;;;287.87;20.23;;;;;;;3.94;100.00;103844.09;5027387;28;20090;-55
2022/01/18 06:42:24;;;;;;;232.13;18.27;;;;;;;3.96;100.00;103842.28;5028091;28;20051;-56
2022/01/18 06:44:50;;;;;;;157.83;17.13;;;;;;;3.93;100.00;103829.25;5028265;28;20104;-56
2022/01/18 06:47:16;;;;;;;282.93;20.30;;;;;;;3.95;100.00;103844.06;5028230;28;20029;-53
2022/01/18 06:49:41;;;;;;;162.13;18.40;;;;;;;3.98;100.00;103850.97;5027133;28;20068;-56
2022/01/18 06:52:07;;;;;;;113.33;18.27;;;;;;;3.98;100.00;103846.56;5027923;28;20120;-56
2022/01/18 06:54:32;;;;;;;184.60;17.53;;;;;;;3.96;100.00;103843.13;5026179;28;20067;-56
2022/01/18 06:56:57;;;;;;;128.87;17.37;;;;;;;3.96;100.00;103845.78;5028763;28;20060;-55
2022/01/18 06:59:22;;;;;;;111.73;17.73;;;;;;;3.97;100.00;103846.63;5027242;28;20075;-55
2022/01/18 07:01:48;;;;;;;196.07;17.40;;;;;;;3.93;100.00;103853.75;5024745;28;20079;-57
2022/01/18 07:04:13;;;;;;;153.73;17.57;;;;;;;3.93;100.00;103859.03;5027179;28;20036;-55
2022/01/18 07:06:38;;;;;;;214.40;17.13;;;;;;;3.93;100.00;103866.91;5027871;28;20147;-56
2022/01/18 07:09:04;;;;;;;153.50;16.57;;;;;;;3.94;100.00;103859.88;5027002;28;20400;-56
2022/01/18 07:11:29;;;;;;;167.27;15.87;;;;;;;3.91;100.00;103870.50;5026845;28;20120;-57
2022/01/18 07:13:54;;;;;;;153.07;16.07;;;;;;;3.91;100.00;103868.75;5028103;28;20524;-56
2022/01/18 07:16:20;;;;;;;176.23;17.03;;;;;;;3.90;100.00;103874.06;5027201;28;20051;-55
2022/01/18 07:18:45;;;;;;;160.27;15.63;;;;;;;3.89;100.00;103881.06;5027122;28;20045;-55
2022/01/18 07:21:10;;;;;;;142.87;15.73;;;;;;;3.90;100.00;103882.78;5027411;28;20259;-57
2022/01/18 07:23:38;;;;;;;122.60;15.00;;;;;;;3.90;100.00;103880.16;5027664;28;20025;-56
2022/01/18 07:26:04;;;;;;;122.00;13.83;;;;;;;3.93;100.00;103880.06;5027742;28;20079;-55
2022/01/18 07:28:29;;;;;;;96.63;13.63;;;;;;;3.94;100.00;103884.41;5027123;28;20022;-56
2022/01/18 07:30:55;;;;;;;98.77;14.10;;;;;;;3.97;100.00;103886.94;5025290;28;20527;-57
2022/01/18 07:33:20;;;;;;;88.53;13.37;;;;;;;3.97;100.00;103886.94;5027414;28;20043;-55
2022/01/18 07:35:46;;;;;;;90.23;11.90;;;;;;;3.96;100.00;103887.84;5027758;28;20457;-57
2022/01/18 07:38:15;;;;;;;127.83;12.97;;;;;;;3.95;100.00;103883.50;5027430;28;20033;-55
2022/01/18 07:40:41;;;;;;;120.20;11.45;;;;;;;3.95;100.00;103891.38;5023012;28;20116;-55
2022/01/18 07:43:08;;;;;;;102.43;12.53;;;;;;;3.94;100.00;103889.66;5026810;28;20392;-56
2022/01/18 07:45:34;;;;;;;103.50;10.27;;;;;;;3.95;100.00;103888.75;5027036;28;20084;-57
2022/01/18 07:48:00;;;;;;;110.60;11.03;;;;;;;3.95;100.00;103890.53;5026946;28;20080;-57
2022/01/18 07:50:26;;;;;;;66.33;10.53;;;;;;;3.95;100.00;103891.38;5025919;28;20037;-56
2022/01/18 07:52:51;;;;;;;83.73;10.67;;;;;;;3.93;100.00;103887.94;5026931;28;20029;-55
2022/01/18 07:55:17;;;;;;;92.07;11.07;;;;;;;3.95;100.00;103887.91;5023572;28;20076;-53
2022/01/18 07:57:43;;;;;;;117.93;11.57;;;;;;;3.97;100.00;103899.22;5028005;28;20435;-55
2022/01/18 08:00:10;;;;;;;131.57;11.27;;;;;;;3.97;100.00;103891.31;5026186;28;20029;-55
2022/01/18 08:02:36;;;;;;;101.77;8.87;;;;;;;3.96;100.00;103892.25;5026701;28;20445;-56
2022/01/18 08:05:06;;;;;;;157.93;10.50;;;;;;;3.93;100.00;103901.09;5025208;28;20075;-57
2022/01/18 08:07:31;;;;;;;135.43;9.15;;;;;;;3.93;100.00;103895.84;5026578;28;20515;-57
2022/01/18 08:09:56;;;;;;;148.93;10.70;;;;;;;3.93;100.00;103898.47;5026399;28;20045;-55
2022/01/18 08:12:23;;;;;;;125.03;10.03;;;;;;;3.91;100.00;103905.53;5027543;28;20025;-56
2022/01/18 08:14:49;;;;;;;171.97;10.30;;;;;;;3.87;100.00;103901.31;5026630;28;20029;-55
2022/01/18 08:17:15;;;;;;;152.43;10.13;;;;;;;3.91;100.00;103900.28;5027836;28;20473;-56
2022/01/18 08:19:40;;;;;;;125.93;9.47;;;;;;;3.92;100.00;103896.75;5025996;28;20029;-55
2022/01/18 08:22:06;;;;;;;125.10;10.57;;;;;;;3.92;100.00;103894.13;5026848;28;20021;-55
2022/01/18 08:24:31;;;;;;;141.17;11.10;;;;;;;3.89;100.00;103894.22;5030369;28;20163;-56
2022/01/18 08:26:57;;;;;;;89.83;11.33;;;;;;;3.89;100.00;103899.47;5032646;28;20509;-56
2022/01/18 08:29:22;;;;;;;93.47;11.60;;;;;;;3.89;100.00;103903.88;5030956;28;20429;-56
2022/01/18 08:31:47;;;;;;;105.90;11.30;;;;;;;3.88;100.00;103902.16;5031797;28;20069;-57
2022/01/18 08:34:14;;;;;;;94.80;10.93;;;;;;;3.85;100.00;103897.00;5031659;28;20122;-57
2022/01/18 08:36:40;;;;;;;89.10;10.93;;;;;;;3.89;100.00;103893.38;5030934;28;20048;-56
2022/01/18 08:39:07;;;;;;;141.23;12.20;;;;;;;3.92;100.00;103893.25;5030877;28;20473;-57
2022/01/18 08:41:32;;;;;;;93.23;11.20;;;;;;;3.95;100.00;103901.91;5030547;28;20524;-57
2022/01/18 08:43:58;;;;;;;82.83;11.40;;;;;;;4.00;100.00;103891.22;5032093;28;20041;-56
2022/01/18 08:46:23;;;;;;;67.67;11.70;;;;;;;4.04;100.00;103891.06;5031727;28;20040;-57
2022/01/18 08:48:49;;;;;;;99.20;11.70;;;;;;;4.11;100.00;103890.88;5030477;28;20088;-56
2022/01/18 08:51:15;;;;;;;53.00;10.30;;;;;;;4.16;100.00;103892.41;5028619;28;20531;-55
2022/01/18 08:53:41;;;;;;;64.23;10.40;;;;;;;4.19;100.00;103892.31;5034405;28;20021;-55
2022/01/18 08:56:06;;;;;;;139.30;11.37;;;;;;;4.20;100.00;103894.03;5031828;28;20492;-56
2022/01/18 08:58:34;;;;;;;69.27;10.77;;;;;;;4.23;100.00;103893.06;5031124;28;20051;-57
2022/01/18 09:01:00;;;;;;;114.57;10.50;;;;;;;4.21;100.00;103903.63;5030866;28;20041;-56
2022/01/18 09:03:25;;;;;;;106.10;11.23;;;;;;;4.22;100.00;103902.72;5028687;28;20055;-57
2022/01/18 09:05:51;;;;;;;70.57;11.13;;;;;;;4.23;100.00;103904.44;5031186;28;20037;-57
2022/01/18 09:08:18;;;;;;;53.87;11.33;;;;;;;4.24;100.00;103905.28;5031245;28;20400;-56
2022/01/18 09:10:46;;;;;;;78.03;12.67;;;;;;;4.24;100.00;103907.91;5024278;28;20033;-56
2022/01/18 09:13:12;;;;;;;57.90;13.23;;;;;;;4.31;100.00;103910.25;5031021;28;20086;-57
2022/01/18 09:15:37;;;;;;;58.83;13.10;;;;;;;4.35;100.00;103905.78;5031711;28;20112;-57
2022/01/18 09:18:02;;;;;;;60.80;12.57;;;;;;;4.35;100.00;103897.91;5030807;28;20033;-56
2022/01/18 09:20:28;;;;;;;45.93;12.17;;;;;;;4.34;100.00;103902.28;5027053;28;20061;-57
2022/01/18 09:22:53;;;;;;;53.97;12.40;;;;;;;4.31;100.00;103898.88;5027770;28;20459;-56
2022/01/18 09:25:21;;;;;;;40.70;12.20;;;;;;;4.35;100.00;103909.28;5031844;28;20526;-57
2022/01/18 09:27:47;;;;;;;55.10;13.17;;;;;;;4.36;100.00;103910.13;5028781;28;20040;-57
2022/01/18 09:30:14;;;;;;;42.53;12.70;;;;;;;4.40;100.00;103916.13;5024537;28;20033;-55
2022/01/18 09:32:40;;;;;;;51.40;12.37;;;;;;;4.41;100.00;103915.22;5027616;28;20075;-56
2022/01/18 09:35:06;;;;;;;47.07;13.07;;;;;;;4.44;100.00;103915.97;5017626;28;20370;-56
2022/01/18 09:37:32;;;;;;;47.53;13.20;;;;;;;4.45;100.00;103915.06;5025610;28;20121;-57
2022/01/18 09:39:58;;;;;;;44.93;14.03;;;;;;;4.49;100.00;103921.91;5029313;28;20100;-56
2022/01/18 09:42:32;;;;;;;48.30;13.77;;;;;;;4.53;100.00;103922.66;5031049;28;20033;-56
2022/01/18 09:44:59;;;;;;;52.73;14.60;;;;;;;4.53;100.00;103928.78;5031259;28;20030;-56
2022/01/18 09:47:25;;;;;;;58.43;15.00;;;;;;;4.57;100.00;103924.25;5033615;28;20389;-57
2022/01/18 09:49:50;;;;;;;65.87;14.57;;;;;;;4.58;100.00;103925.97;5027425;28;20044;-56
2022/01/18 09:52:15;;;;;;;67.27;15.33;;;;;;;4.61;100.00;103924.09;5028016;28;20124;-55
2022/01/18 09:54:42;;;;;;;55.10;15.40;;;;;;;4.65;100.00;103931.00;5030835;28;20025;-54
2022/01/18 09:57:07;;;;;;;58.17;16.00;;;;;;;4.68;100.00;103926.53;5029540;28;20099;-55
2022/01/18 09:59:32;;;;;;;52.43;15.90;;;;;;;4.63;100.00;103924.94;5030148;28;20072;-53
2022/01/18 10:02:00;;;;;;;53.67;16.70;;;;;;;4.75;100.00;103928.00;5030293;28;20459;-56
2022/01/18 10:04:31;;;;;;;52.30;16.57;;;;;;;4.78;100.00;103926.13;5030556;28;20029;-55
2022/01/18 10:06:56;;;;;;;50.77;16.70;;;;;;;4.82;100.00;103926.84;5029670;28;20436;-54
2022/01/18 10:09:23;;;;;;;49.33;17.00;;;;;;;4.84;100.00;103931.16;5028584;28;20029;-56
2022/01/18 10:12:13;;;;;;;56.13;17.67;;;;;;;4.88;100.00;103930.13;5030239;28;20463;-56
2022/01/18 10:14:43;;;;;;;51.67;17.13;;;;;;;4.91;100.00;103929.13;5029437;28;20029;-54
2022/01/18 10:17:11;;;;;;;50.83;17.25;;;;;;;4.96;100.00;103928.06;5029830;28;20033;-56
2022/01/18 10:19:43;;;;;;;52.30;18.33;;;;;;;5.02;100.00;103931.38;5028772;28;20018;-56
2022/01/18 10:22:18;;;;;;;59.90;18.80;;;;;;;5.12;100.00;103933.59;5029967;28;20025;-54
2022/01/18 10:24:44;;;;;;;62.60;20.03;;;;;;;5.19;100.00;103927.16;5030062;28;20393;-57
2022/01/18 10:27:12;;;;;;;53.53;19.23;;;;;;;5.26;100.00;103922.53;5029400;28;20457;-56
2022/01/18 10:29:41;;;;;;;53.67;18.47;;;;;;;5.33;100.00;103925.78;5028966;28;20083;-56
2022/01/18 10:32:20;;;;;;;;;;;;;;;5.43;100.00;103927.13;5030236;28;20083;-55
2022/01/18 10:37:21;;;;;;;46.03;17.87;;;;;;;5.55;100.00;103931.91;5029339;28;20284;-55
2022/01/18 10:39:51;;;;;;;54.87;18.20;;;;;;;5.62;100.00;103919.34;5029563;28;20116;-56
2022/01/18 10:42:35;;;;;;;53.37;18.07;;;;;;;5.72;100.00;103921.53;5024847;28;20105;-55
2022/01/18 10:45:14;;;;;;;45.33;17.73;;;;;;;5.79;100.00;103917.72;5029327;28;20021;-56
2022/01/18 10:47:52;;;;;;;58.00;17.77;;;;;;;5.90;100.00;103912.03;5028964;28;20033;-55
2022/01/18 10:50:19;;;;;;;46.00;16.87;;;;;;;5.92;100.00;103910.19;5022471;28;20030;-55
2022/01/18 10:52:45;;;;;;;49.43;17.43;;;;;;;5.98;100.00;103902.00;5029155;28;20056;-56
2022/01/18 10:55:24;;;;;;;47.33;16.03;;;;;;;6.03;100.00;103900.03;5029760;28;20030;-57
2022/01/18 10:57:50;;;;;;;44.10;15.82;;;;;;;6.06;100.00;103893.75;5024810;28;20037;-57
2022/01/18 11:00:24;;;;;;;45.00;16.20;;;;;;;6.12;100.00;103904.94;5027419;28;20021;-56
2022/01/18 11:02:52;;;;;;;42.27;15.87;;;;;;;6.20;100.00;103899.31;5022813;28;20041;-56
2022/01/18 11:05:26;;;;;;;43.47;15.53;;;;;;;6.29;100.00;103893.63;5029629;28;20111;-54
2022/01/18 11:07:53;;;;;;;44.40;15.30;;;;;;;6.39;100.00;103892.31;5028949;28;20029;-56
2022/01/18 11:10:23;;;;;;;48.00;14.27;;;;;;;6.45;100.00;103884.09;5028271;28;20590;-57
2022/01/18 11:13:09;;;;;;;46.87;13.67;;;;;;;6.57;100.00;103884.47;5028140;28;20108;-54
2022/01/18 11:15:37;;;;;;;42.97;12.63;;;;;;;6.61;100.00;103886.88;5029019;28;20025;-55
2022/01/18 11:18:13;;;;;;;40.73;12.70;;;;;;;6.67;100.00;103877.84;5028845;28;20049;-56
2022/01/18 11:20:42;;;;;;;39.87;13.20;;;;;;;6.64;100.00;103868.25;5022056;28;20520;-57
2022/01/18 11:23:08;;;;;;;43.38;12.73;;;;;;;6.77;100.00;103884.41;5022806;28;20025;-55
2022/01/18 11:25:37;;;;;;;34.37;8.57;;;;;;;6.82;99.87;103883.25;5028265;28;20029;-56
2022/01/18 11:28:04;;;;;;;29.23;6.90;;;;;;;6.87;99.21;103882.19;5022360;28;20025;-56
2022/01/18 11:30:32;;;;;;;24.90;6.50;;;;;;;6.90;98.06;103884.69;5023471;28;20041;-55
2022/01/18 11:32:58;;;;;;;36.50;7.57;;;;;;;6.94;97.91;103871.28;5022614;28;20070;-56
2022/01/18 11:35:42;;;;;;;33.28;7.22;;;;;;;6.96;97.40;103882.63;5024478;28;20025;-56
2022/01/18 11:38:20;;;;;;;29.80;6.37;;;;;;;6.95;96.15;103888.00;5027595;28;20033;-57
2022/01/18 11:40:48;;;;;;;29.10;5.85;;;;;;;6.95;95.20;103882.72;5024496;28;20454;-56
2022/01/18 11:43:15;;;;;;;35.23;6.47;;;;;;;6.98;94.72;103882.56;5028655;28;20496;-57
2022/01/18 11:45:43;;;;;;;28.47;6.33;;;;;;;6.99;94.91;103873.72;5028248;28;20029;-57
2022/01/18 11:48:19;;;;;;;37.50;7.80;;;;;;;7.04;94.90;103876.97;5027803;28;20500;-56
2022/01/18 11:51:00;;;;;;;30.05;7.15;;;;;;;7.14;94.28;103873.81;5025736;28;20465;-56
2022/01/18 11:56:34;;;;;;;33.67;7.25;;;;;;;7.56;93.64;103864.72;5024918;28;20033;-55
2022/01/18 11:59:13;;;;;;;32.03;7.60;;;;;;;7.68;93.03;103863.25;5025405;28;20025;-56
2022/01/18 12:01:49;;;;;;;33.70;7.80;;;;;;;7.82;92.41;103866.06;5027050;28;20055;-56
2022/01/18 12:07:06;;;;;;;28.55;7.25;;;;;;;8.09;92.50;103861.09;5021886;28;20122;-56
2022/01/18 12:09:42;;;;;;;36.88;7.20;;;;;;;8.17;91.72;103866.03;5027789;28;20531;-56
2022/01/18 12:12:48;;;;;;;33.20;6.60;;;;;;;8.24;91.33;103865.59;5024161;28;20033;-56
2022/01/18 12:15:16;;;;;;;36.90;7.53;;;;;;;8.32;91.05;103862.53;5002523;28;20360;-57
2022/01/18 12:17:56;;;;;;;25.15;7.10;;;;;;;8.48;90.09;103862.63;5024326;28;20504;-56
2022/01/18 12:20:34;;;;;;;31.90;6.82;;;;;;;8.61;90.04;103858.34;5027347;28;20057;-56
2022/01/18 12:23:17;;;;;;;40.75;6.70;;;;;;;8.68;89.48;103855.31;5027896;28;20065;-56
2022/01/18 12:26:00;;;;;;;30.98;6.72;;;;;;;8.76;89.14;103854.88;5027550;28;20032;-56
2022/01/18 12:32:27;;;;;;;32.05;6.57;;;;;;;8.92;87.57;103847.78;5028043;28;20045;-56
2022/01/18 12:34:26;;;;;;;30.15;6.10;;;;;;;9.04;87.37;103842.75;5027575;28;20048;-56